Latest Weather Observations for Kiama

IDN60801

Issued at 7:32 pm EST Monday 10 August 2020 (issued every 10 minutes, with the page automatically refreshed every 10 minutes)

About weather observations | Map of weather stations | Latest weather observations for NSW | Other Formats
Station Details ID: 068242 Name: KIAMA (BOMBO HEADLAND) Lat: -34.65 Lon: 150.86 Height: 15.5 m
Data from the previous 72 hours. | See also: Recent months at Kiama
Date/Time
EST
Temp
°C
App
Temp
°C
Dew
Point
°C
Rel
Hum
%
Delta-T
°C
Wind Press
QNH
hPa
Press
MSL
hPa
Rain since
9am
mm
Dir  Spd
km/h
Gust
km/h
Spd
kts
Gust
kts
10/07:30pm 11.5 5.9 8.9 84 1.3 S 28 37 15 20 - - 1.8
10/07:00pm 11.2 8.1 8.8 85 1.2 SSW 15 22 8 12 - - 1.6
10/06:30pm 11.4 6.6 8.8 84 1.3 S 24 32 13 17 - - 1.6
10/06:00pm 12.0 6.8 8.8 81 1.6 S 26 35 14 19 - - 1.2
10/05:30pm 12.3 6.3 8.8 79 1.7 S 30 37 16 20 - - 0.6
10/05:00pm 12.3 6.4 9.0 80 1.7 S 30 44 16 24 - - 0.6
10/04:30pm 12.5 6.2 8.8 78 1.8 S 32 41 17 22 - - 0.6
10/04:00pm 12.9 7.0 9.0 77 2.0 S 30 39 16 21 - - 0.6
10/03:30pm 13.1 6.9 9.5 79 1.8 S 32 43 17 23 - - 0.6
10/03:00pm 12.9 6.3 9.9 82 1.5 S 35 50 19 27 - - 0.6
10/02:48pm 12.7 6.0 9.7 82 1.5 S 35 57 19 31 - - 0.6
10/02:30pm 12.6 5.4 9.2 80 1.7 S 37 54 20 29 - - 0.6
10/02:22pm 13.3 7.6 9.7 79 1.8 S 30 48 16 26 - - 0.6
10/02:00pm 13.6 8.1 9.3 75 2.2 SSW 28 39 15 21 - - 0.2
10/01:30pm 13.7 6.9 9.2 74 2.3 S 35 48 19 26 - - 0.2
10/01:00pm 13.9 7.4 8.9 72 2.5 S 33 46 18 25 - - 0.2
10/12:45pm 14.3 7.4 8.7 69 2.8 S 35 54 19 29 - - 0.2
10/12:30pm 15.1 6.3 7.4 60 3.8 SSE 43 56 23 30 - - 0.2
10/12:00pm 15.1 5.5 8.1 63 3.5 SSE 48 69 26 37 - - 0.2
10/11:46am 15.3 6.2 8.3 63 3.5 SSE 46 65 25 35 - - 0.2
10/11:30am 15.2 5.5 7.5 60 3.8 SSE 48 65 26 35 - - 0.2
10/11:12am 14.8 5.5 7.6 62 3.6 SSE 46 69 25 37 - - 0.2
10/11:00am 14.5 6.6 9.3 71 2.7 SSE 41 54 22 29 - - 0.2
10/10:39am 13.7 4.9 9.4 75 2.2 SSE 46 65 25 35 - - 0.2
10/10:30am 13.2 3.5 8.9 75 2.2 SSE 50 61 27 33 - - 0.2
10/10:08am 13.9 4.6 9.1 73 2.4 SSE 48 69 26 37 - - 0.2
10/10:00am 13.9 4.2 8.9 72 2.5 SSE 50 67 27 36 - - 0.2
10/09:31am 14.4 5.1 9.0 70 2.7 SSE 48 67 26 36 - - 0.2
10/09:30am 14.3 4.6 8.9 70 2.7 SSE 50 69 27 37 - - 0.2
10/09:13am 14.5 5.5 10.3 76 2.2 SSE 48 69 26 37 - - 0.2
10/09:00am 14.0 4.6 10.0 77 2.1 SSE 50 67 27 36 - - -
10/08:40am 13.3 4.5 9.5 78 1.9 SSE 46 67 25 36 - - -
10/08:30am 13.5 3.4 9.0 74 2.3 SSE 52 65 28 35 - - -
10/04:48am 14.3 3.8 10.9 80 1.8 SSE 57 76 31 41 - - 49.8
10/04:30am 13.1 2.2 10.8 86 1.2 SSE 59 76 32 41 - - 49.8
10/04:08am 13.8 4.0 11.3 85 1.3 SSE 54 72 29 39 - - 48.8
10/04:00am 13.6 2.8 11.1 85 1.3 SSE 59 74 32 40 - - 48.8
10/03:48am 13.8 3.0 11.3 85 1.3 SSE 59 78 32 42 - - 48.6
10/03:30am 13.6 1.9 10.8 83 1.5 SSE 63 80 34 43 - - 48.2
10/03:18am 13.9 2.6 10.9 82 1.6 SSE 61 80 33 43 - - 48.0
10/03:00am 13.9 2.3 11.1 83 1.5 SSE 63 80 34 43 - - 47.6
10/02:41am 14.1 2.6 10.1 77 2.1 SE 61 80 33 43 - - 47.2
10/02:30am 14.8 3.5 10.8 77 2.1 SE 61 74 33 40 - - 46.8
10/02:05am 14.6 4.3 11.0 79 1.9 SSE 56 76 30 41 - - 46.8
10/02:00am 14.5 3.6 10.9 79 1.9 SSE 59 76 32 41 - - 46.8
10/01:43am 14.7 4.2 11.1 79 1.9 SSE 57 78 31 42 - - 46.8
10/01:30am 14.4 4.0 10.8 79 1.9 SSE 56 69 30 37 - - 46.8
10/01:02am 14.3 5.5 11.1 81 1.7 SE 48 67 26 36 - - 46.8
10/01:00am 14.0 5.4 10.4 79 1.9 SE 46 63 25 34 - - 46.8
10/12:39am 14.8 6.0 11.0 78 2.0 SE 48 67 26 36 - - 46.6
10/12:30am 14.7 5.1 10.7 77 2.1 SE 52 67 28 36 - - 46.6
10/12:00am 14.9 6.2 11.3 79 1.9 SE 48 59 26 32 - - 46.6
 
Date/Time
EST
Temp
°C
App
Temp
°C
Dew
Point
°C
Rel
Hum
%
Delta-T
°C
Wind Press
QNH
hPa
Press
MSL
hPa
Rain since
9am
mm
Dir  Spd
km/h
Gust
km/h
Spd
kts
Gust
kts
09/11:30pm 14.6 4.2 11.2 80 1.8 SE 57 69 31 37 - - 46.6
09/11:00pm 14.4 5.1 11.7 84 1.4 SSE 52 67 28 36 - - 46.6
09/10:30pm 14.4 4.7 11.7 84 1.4 SSE 54 69 29 37 - - 46.6
09/10:00pm 13.9 4.0 11.2 84 1.4 SE 54 67 29 36 - - 46.6
09/09:30pm 14.3 5.7 11.6 84 1.4 SE 48 65 26 35 - - 46.4
09/09:00pm 14.9 4.9 11.9 82 1.6 SE 56 69 30 37 - - 46.2
09/08:35pm 14.8 4.5 11.6 81 1.7 SE 57 76 31 41 - - 46.2
09/08:30pm 14.7 3.9 11.3 80 1.8 SE 59 76 32 41 - - 46.2
09/08:00pm 15.0 3.9 11.6 80 1.8 SE 61 76 33 41 - - 46.2
09/07:35pm 14.9 2.8 11.9 82 1.6 SSE 67 87 36 47 - - 46.2
09/07:30pm 15.0 2.4 12.1 83 1.6 SSE 70 87 38 47 - - 46.2
09/07:00pm 14.9 2.5 12.4 85 1.4 SSE 69 91 37 49 - - 46.2
09/06:30pm 14.1 1.5 12.1 88 1.1 SSE 70 95 38 51 - - 46.2
09/06:00pm 13.5 1.4 11.9 90 0.9 S 67 91 36 49 - - 45.0
09/05:30pm 13.3 3.0 11.7 90 0.9 SSE 57 82 31 44 - - 43.6
09/05:00pm 12.4 1.5 11.0 91 0.7 S 59 78 32 42 - - 41.8
09/04:49pm 13.1 4.1 11.7 91 0.7 S 50 72 27 39 - - 40.2
09/04:30pm 13.0 2.9 11.6 91 0.7 SSE 56 72 30 39 - - 38.8
09/04:14pm 12.9 2.7 11.5 91 0.7 SSE 56 76 30 41 - - 37.6
09/04:00pm 12.9 3.1 11.5 91 0.7 SSE 54 67 29 36 - - 37.0
09/03:30pm 13.2 5.4 11.9 92 0.7 SSE 44 67 24 36 - - 33.6
09/03:26pm 12.8 3.7 11.4 91 0.7 SSE 50 70 27 38 - - 33.4
09/03:00pm 12.5 3.3 10.9 90 0.8 SSE 50 65 27 35 - - 30.8
09/02:30pm 12.9 3.9 11.5 91 0.7 SE 50 59 27 32 - - 24.8
09/02:00pm 13.2 4.5 11.4 89 1.0 SE 48 59 26 32 - - 19.2
09/01:30pm 13.4 6.5 11.5 88 1.0 SE 39 46 21 25 - - 15.0
09/01:00pm 13.4 6.8 11.5 88 1.0 SE 37 48 20 26 - - 13.6
09/12:47pm 12.4 8.8 10.5 88 1.0 SSE 20 43 11 23 - - 13.2
09/12:30pm 12.0 8.2 9.7 86 1.2 S 20 26 11 14 - - 9.8
09/12:24pm 12.6 9.2 10.5 87 1.1 S 19 26 10 14 - - 7.6
09/12:00pm 12.5 6.3 10.2 86 1.2 SSE 33 44 18 24 - - 4.2
09/11:58am 12.7 6.8 10.6 87 1.1 SSE 32 44 17 24 - - 4.0
09/11:30am 12.4 7.1 10.0 85 1.2 S 28 33 15 18 - - 0.8
09/11:00am 12.3 9.4 9.5 83 1.4 SSW 15 20 8 11 - - 0.4
09/10:34am 13.0 10.3 8.9 76 2.1 SSE 13 37 7 20 - - 0.0
09/10:30am 13.2 12.2 8.9 75 2.2 S 4 13 2 7 - - 0.0
09/10:00am 12.9 11.8 8.6 75 2.1 W 4 7 2 4 - - 0.0
09/09:30am 12.2 10.4 8.1 76 2.0 W 7 11 4 6 - - 0.0
09/09:00am 12.5 11.1 9.0 79 1.8 S 6 9 3 5 - - 12.6
09/08:30am 11.8 10.2 8.6 81 1.6 SSW 7 13 4 7 - - 12.6
09/08:00am 10.8 9.0 7.9 82 1.4 SSW 7 11 4 6 - - 12.6
09/07:30am 10.0 8.0 7.3 83 1.3 SSW 7 13 4 7 - - 12.6
09/07:00am 9.1 6.9 6.4 83 1.2 SW 7 11 4 6 - - 12.6
09/06:30am 10.0 8.0 6.9 81 1.5 NW 7 9 4 5 - - 12.6
09/06:00am 10.3 7.1 7.0 80 1.6 NNW 13 19 7 10 - - 12.6
09/05:30am 10.1 6.6 7.0 81 1.5 NNW 15 24 8 13 - - 12.6
09/05:00am 10.8 7.8 7.5 80 1.6 WSW 13 20 7 11 - - 12.6
09/04:30am 11.1 6.9 8.3 83 1.4 SW 20 30 11 16 - - 12.4
09/04:00am 10.7 7.1 8.5 86 1.1 WSW 17 26 9 14 - - 12.4
09/03:30am 10.9 7.8 9.0 88 0.9 SW 15 24 8 13 - - 11.2
09/03:00am 10.3 7.0 8.2 87 1.0 W 15 28 8 15 - - 9.4
09/02:30am 10.5 7.7 8.4 87 1.0 W 13 19 7 10 - - 7.0
09/02:00am 11.0 8.7 8.9 87 1.0 W 11 17 6 9 - - 5.0
09/01:30am 12.2 11.1 9.9 86 1.2 SW 6 7 3 4 - - 4.0
09/01:00am 12.5 11.8 10.2 86 1.2 SSE 4 6 2 3 - - 3.8
09/12:30am 12.2 11.8 9.9 86 1.2 WSW 2 4 1 2 - - 3.6
09/12:00am 12.4 11.3 10.1 86 1.2 NW 6 9 3 5 - - 3.2
 
Date/Time
EST
Temp
°C
App
Temp
°C
Dew
Point
°C
Rel
Hum
%
Delta-T
°C
Wind Press
QNH
hPa
Press
MSL
hPa
Rain since
9am
mm
Dir  Spd
km/h
Gust
km/h
Spd
kts
Gust
kts
08/11:30pm 12.8 10.9 10.5 86 1.2 N 11 17 6 9 - - 3.2
08/11:00pm 12.7 11.6 10.6 87 1.1 N 7 13 4 7 - - 3.0
08/10:30pm 12.5 11.3 10.2 86 1.2 NNW 7 13 4 7 - - 3.0
08/10:00pm 12.5 10.9 10.2 86 1.2 NW 9 13 5 7 - - 3.0
08/09:30pm 12.9 11.7 10.4 85 1.3 W 7 13 4 7 - - 2.6
08/09:00pm 13.7 11.9 11.0 84 1.4 SW 11 17 6 9 - - 2.2
08/08:30pm 14.7 10.7 11.8 83 1.6 S 24 33 13 18 - - 2.2
08/08:00pm 14.2 8.5 11.2 82 1.6 SE 32 43 17 23 - - 2.2
08/07:30pm 14.0 8.1 11.0 82 1.6 ESE 33 43 18 23 - - 2.0
08/07:09pm 14.3 9.1 11.5 83 1.5 ESE 30 46 16 25 - - 2.0
08/07:00pm 14.1 10.3 11.1 82 1.6 E 22 35 12 19 - - 2.0
08/06:30pm 14.3 8.6 11.3 82 1.6 E 32 43 17 23 - - 1.8
08/06:00pm 14.4 8.7 11.9 85 1.3 ENE 33 48 18 26 - - 1.8
08/05:30pm 13.9 6.5 11.1 83 1.5 ENE 41 50 22 27 - - 1.8
08/05:00pm 14.7 8.3 12.0 84 1.5 ENE 37 48 20 26 - - 1.8
08/04:30pm 15.5 12.3 13.0 85 1.4 E 22 32 12 17 - - 1.8
08/04:00pm 15.3 12.0 12.8 85 1.4 E 22 33 12 18 - - 1.8
08/03:58pm 15.2 12.2 12.5 84 1.5 E 20 33 11 18 - - 1.8
08/03:30pm 15.9 15.8 13.4 85 1.4 SE 6 13 3 7 - - 1.8
08/03:00pm 16.0 15.4 13.5 85 1.4 SSE 9 11 5 6 - - 1.8
08/02:30pm 16.0 15.5 13.7 86 1.3 SE 9 15 5 8 - - 1.8
08/02:00pm 15.9 16.3 13.7 87 1.2 NE 4 6 2 3 - - 1.8
08/01:30pm 15.6 13.4 13.4 87 1.2 NNE 17 24 9 13 - - 1.8
08/01:00pm 15.2 11.1 12.7 85 1.4 ENE 26 35 14 19 - - 0.2
08/12:30pm 16.1 11.9 13.4 84 1.5 ENE 28 39 15 21 - - 0.2
08/12:00pm 16.0 12.5 13.5 85 1.4 E 24 37 13 20 - - 0.2
08/11:30am 15.8 10.5 13.1 84 1.5 E 33 44 18 24 - - 0.2
08/11:00am 15.7 10.6 13.2 85 1.4 E 32 44 17 24 - - 0.2
08/10:30am 15.6 10.5 13.1 85 1.4 E 32 50 17 27 - - 0.2
08/10:10am 15.3 10.5 12.8 85 1.4 E 30 48 16 26 - - 0.2
08/10:00am 15.4 11.1 13.1 86 1.3 E 28 44 15 24 - - 0.2
08/09:30am 15.2 10.5 13.1 87 1.2 E 30 50 16 27 - - 0.2
08/09:26am 15.0 10.1 12.7 86 1.3 E 30 50 16 27 - - 0.2
08/09:00am 15.0 9.7 13.0 88 1.1 ENE 33 50 18 27 - - 77.2
08/08:30am 14.9 9.2 12.9 88 1.1 ENE 35 50 19 27 - - 76.8
08/08:01am 14.7 9.5 12.9 89 1.0 ENE 32 52 17 28 - - 76.2
08/08:00am 14.7 9.3 12.9 89 1.0 ENE 33 52 18 28 - - 76.2
08/07:30am 14.5 8.3 12.7 89 1.0 ENE 37 52 20 28 - - 75.4
08/07:00am 14.8 10.1 13.2 90 0.9 NE 30 41 16 22 - - 71.0
08/06:30am 14.6 11.0 13.0 90 0.9 NE 24 35 13 19 - - 70.6
08/06:00am 14.7 11.9 13.1 90 0.9 NNE 20 30 11 16 - - 69.6
08/05:30am 14.5 13.7 12.9 90 0.9 N 9 22 5 12 - - 68.0
08/05:00am 14.2 11.8 12.6 90 0.9 ENE 17 22 9 12 - - 61.6
08/04:30am 13.9 10.8 12.3 90 0.9 E 20 28 11 15 - - 59.8
08/04:00am 13.7 8.7 12.1 90 0.9 ENE 30 37 16 20 - - 56.6
08/03:30am 13.8 10.9 12.2 90 0.9 ENE 19 32 10 17 - - 55.0
08/03:00am 13.7 8.7 12.1 90 0.9 ENE 30 37 16 20 - - 53.2
08/02:30am 14.0 9.8 12.4 90 0.9 ENE 26 32 14 17 - - 50.4
08/02:00am 13.7 10.2 12.1 90 0.9 ENE 22 32 12 17 - - 50.4
08/01:30am 13.7 7.7 12.1 90 0.9 ENE 35 48 19 26 - - 50.0
08/01:14am 14.0 9.4 12.4 90 0.9 NE 28 48 15 26 - - 49.2
08/01:00am 13.8 9.2 12.2 90 0.9 ENE 28 37 15 20 - - 48.6
08/12:30am 13.2 9.1 11.4 89 1.0 NE 24 35 13 19 - - 46.8
08/12:00am 13.4 8.6 11.6 89 1.0 NNE 28 35 15 19 - - 42.4
 
Date/Time
EST
Temp
°C
App
Temp
°C
Dew
Point
°C
Rel
Hum
%
Delta-T
°C
Wind Press
QNH
hPa
Press
MSL
hPa
Rain since
9am
mm
Dir  Spd
km/h
Gust
km/h
Spd
kts
Gust
kts
07/11:30pm 14.0 8.4 12.2 89 1.0 ENE 33 41 18 22 - - 38.8
07/11:00pm 13.7 9.7 11.8 88 1.0 E 24 33 13 18 - - 34.2
07/10:30pm 13.8 11.1 11.8 88 1.1 E 17 28 9 15 - - 31.4
07/10:00pm 13.5 9.4 11.4 87 1.1 ENE 24 32 13 17 - - 27.6
07/09:30pm 13.3 9.9 11.2 87 1.1 ENE 20 33 11 18 - - 24.6
07/09:00pm 12.8 6.9 10.3 85 1.3 ENE 32 39 17 21 - - 22.4
07/08:30pm 13.2 8.5 10.6 84 1.4 NE 26 46 14 25 - - 19.8
07/08:28pm 13.2 8.1 10.6 84 1.4 NE 28 46 15 25 - - 19.6
07/08:00pm 14.0 9.8 11.0 82 1.6 ENE 24 35 13 19 - - 14.0

Other formats

Comma delimited format used in spreadsheet applications
http://www.bom.gov.au/fwo/IDN60801/IDN60801.95749.axf

JavaScript Object Notation format (JSON) in row-major order
http://www.bom.gov.au/fwo/IDN60801/IDN60801.95749.json

Data quality

Most of these data are generated automatically and are frequently updated. Quality checks on data are not normally performed. It is possible for incorrect values to appear. Refer to information at About Latest Weather Observations and please check the disclaimer before using these data.